AirNav   Air Wisconsin Up To $57,000 Bonus
 
 943 users online  

OG31 Shady Cove Airpark
Shady Cove, Oregon, USA

GOING TO SHADY COVE?


FAA INFORMATION EFFECTIVE 15 JULY 2021

Location

FAA Identifier: OG31
Lat/Long: 42-36-31.4050N 122-49-45.9700W
42-36.523417N 122-49.766167W
42.6087236,-122.8294361
(estimated)
Elevation: 1522 ft. / 464 m (estimated)
Variation: 18E (1985)
From city: 1 mile W of SHADY COVE, OR
Time zone: UTC -7 (UTC -8 during Standard Time)
Zip code: 97539

Airport Operations

Airport use: Private use. Permission required prior to landing
Activation date: 08/1949
Control tower: no
ARTCC: SEATTLE CENTER
FSS: MC MINNVILLE FLIGHT SERVICE STATION
Attendance: UNATNDD
Wind indicator: yes
Segmented circle: no

Airport Communications

WX ASOS at MFR (14 nm S): 127.25 (541-776-1238)

Nearby radio navigation aids

VOR radial/distance  VOR name  Freq  Var
OEDr006/8.6ROGUE VALLEY VORTAC113.6019E

 
NDB name  Hdg/Dist  Freq  Var  ID
MEDFORD354/13.235616EMEF -- . ..-.

Airport Services

Parking: hangars
Airframe service: NONE
Powerplant service: NONE

Runway Information

Runway 18/36

Dimensions: 2600 x 25 ft. / 792 x 8 m
Surface: turf/gravel
RUNWAY 18  RUNWAY 36
Latitude: 42-36.732500N42-36.314333N
Longitude: 122-49.704167W122-49.828167W
Elevation: 1522.0 ft.1508.0 ft.
Traffic pattern: rightleft
Markings: nonenone
Obstructions: 80 ft. pline, 100 ft. from runway
PLINES INDISTINGUISHABLE BOTH ENDS BECAUSE OF TREES, NO MARKERS.
100 ft. pline, 100 ft. from runway

Airport Ownership and Management from official FAA records

Ownership: Privately-owned
Owner: ROGUE AIR INC
P O BOX 1550
SHADY COVE, OR 97539
Phone 541-878-3600
Manager: TIM TEPPER
PO BOX 1550
SHADY COVE, OR 97539
Phone 541-878-3600

Airport Operational Statistics

Aircraft based on the field: 18
Single engine airplanes: 15
Gliders airplanes: 2
Ultralights: 1
    
Aircraft operations: avg 84/month *
49% transient general aviation
49% local general aviation
1% air taxi
* for 12-month period ending 29 April 1982

Additional Remarks

RWY SFC GRASSED; SOFT SPOTS NORTH END. DO NOT LAND WHEN WATER VISIBLE.
FOR CD CTC CASCADE APCH AT 541-607-4676/4675, WHEN APCH CLSD CTC SEATTLE ARTCC AT 253-351-3694.

Instrument Procedures

There are no published instrument procedures at OG31.

Some nearby airports with instrument procedures:

KMFR - Rogue Valley International - Medford Airport (14 nm S)
3S8 - Grants Pass Airport (25 nm W)
KRBG - Roseburg Regional Airport (44 nm NW)
KSIY - Siskiyou County Airport (52 nm S)
KLMT - Crater Lake-Klamath Regional Airport (56 nm SE)
 
Loc | Ops | Rwys | IFR | FBO | Links
Com | Nav | Svcs | Stats | Notes
Area around OG31 (Shady Cove Airpark)
 
Road maps at: MapQuest Bing Google
 
Aerial photo
WARNING: Photo may not be current or correct
Aerial photo of OG31 (Shady Cove Airpark)
Do you have a better or more recent aerial photo of Shady Cove Airpark that you would like to share? If so, please send us your photo.

 
Sectional chart

 
Airport distance calculator
Flying to Shady Cove Airpark? Find the distance to fly.

From to OG31

Sunrise and sunset
Times for 26-Jul-2021
 Local
(UTC-7)
 Zulu
(UTC)
Morning civil twilight05:2612:26
Sunrise05:5812:58
Sunset20:3703:37
Evening civil twilight21:1004:10

Current date and time
Zulu (UTC)  27-Jul-2021 02:38:33
Local (UTC-7)  26-Jul-2021 19:38:33
 
METAR
KMFR 
14nm S 
270153Z 36013KT 10SM CLR 34/10 A2982 RMK AO2 SLP082 T03390100
KSXT 
24nm W 
270156Z AUTO VRB05KT 10SM CLR 23/07 A3002 RMK AO2 SLP116 T02280067
K3S8 
25nm W 
270215Z AUTO 33012G18KT 10SM CLR 32/06 A2988 RMK AO2
TAF
KMFR 
14nm S 
261736Z 2618/2718 34003KT P6SM FEW150 SCT250 FM262200 32012KT P6SM VCSH SCT120 BKN250 FM270300 32004KT P6SM FEW080 BKN120 BKN250
NOTAMs
Click for the latest NOTAMs
NOTAMs are issued by the DoD/FAA and will open in a separate window not controlled by AirNav.

 

 
 

Would you like to see your business listed on this page?

 If your business provides an interesting product or service to pilots, flight crews, aircraft, or users of the Shady Cove Airpark, you should consider listing it here.  To start the listing process, click on the button below
 
Add a business
 

Other Pages about Shady Cove Airpark

Update a link
 
Copyright © AirNav, LLC. All rights reserved. Privacy Policy  Contact